Time;durP1;ratioP1;P1;durP2;ratioP2;P2;SDS_P1;SDS_P2;PMS_P1;PMS_P2;Temp;Humidity;BMP_temperature;BMP_pressure;BME280_temperature;BME280_humidity;BME280_pressure;Samples;Min_cycle;Max_cycle;Signal;HPM_P1;HPM_P2
2023/08/28 00:02:15;;;;;;;1.10;0.50;;;22.20;52.30;;;;;;5133765;27;21170;-54
2023/08/28 00:04:41;;;;;;;1.20;0.57;;;22.20;52.50;;;;;;5133714;27;20670;-54
2023/08/28 00:07:06;;;;;;;1.10;0.40;;;22.20;52.40;;;;;;5133582;27;20424;-52
2023/08/28 00:09:34;;;;;;;1.30;0.60;;;22.20;52.50;;;;;;5133792;27;20219;-52
2023/08/28 00:12:01;;;;;;;1.47;0.50;;;22.20;52.60;;;;;;5133586;27;20203;-53
2023/08/28 00:14:26;;;;;;;1.53;1.27;;;22.10;52.30;;;;;;5133373;27;20404;-55
2023/08/28 00:16:53;;;;;;;1.87;0.73;;;22.10;52.50;;;;;;5133673;27;20563;-52
2023/08/28 00:19:19;;;;;;;1.00;0.40;;;22.10;52.60;;;;;;5133658;27;20493;-54
2023/08/28 00:21:44;;;;;;;1.20;0.70;;;22.10;52.70;;;;;;5133773;27;20784;-55
2023/08/28 00:24:10;;;;;;;1.20;0.70;;;22.10;52.40;;;;;;5132478;27;20407;-51
2023/08/28 00:26:36;;;;;;;1.20;0.60;;;22.10;52.50;;;;;;5133310;27;20179;-53
2023/08/28 00:29:02;;;;;;;1.87;0.63;;;22.10;52.70;;;;;;5133296;27;20171;-56
2023/08/28 00:31:28;;;;;;;1.33;0.63;;;22.10;52.80;;;;;;5133607;27;20174;-52
2023/08/28 00:33:54;;;;;;;1.00;0.37;;;22.20;52.80;;;;;;5133225;27;20412;-52
2023/08/28 00:36:20;;;;;;;1.47;0.57;;;22.10;52.70;;;;;;5132890;27;20448;-55
2023/08/28 00:38:46;;;;;;;1.40;0.70;;;22.10;52.80;;;;;;5133146;27;20957;-56
2023/08/28 00:41:12;;;;;;;1.20;0.67;;;22.20;52.80;;;;;;5133200;27;20403;-51
2023/08/28 00:43:38;;;;;;;1.43;0.90;;;22.20;52.60;;;;;;5133308;27;20235;-55
2023/08/28 00:46:05;;;;;;;1.17;0.67;;;22.20;52.60;;;;;;5132744;27;20917;-55
2023/08/28 00:48:32;;;;;;;1.50;0.97;;;22.20;52.60;;;;;;5133127;27;20400;-51
2023/08/28 00:51:00;;;;;;;2.50;0.70;;;22.20;52.50;;;;;;5133118;27;20419;-55
2023/08/28 00:53:26;;;;;;;1.20;0.67;;;22.20;52.70;;;;;;5133073;27;20423;-52
2023/08/28 00:55:53;;;;;;;1.10;0.47;;;22.20;52.60;;;;;;5132731;27;20408;-55
2023/08/28 00:58:19;;;;;;;1.20;0.77;;;22.20;52.60;;;;;;5133104;27;20443;-52
2023/08/28 01:00:45;;;;;;;1.10;0.60;;;22.20;52.60;;;;;;5132944;27;20470;-52
2023/08/28 01:03:10;;;;;;;1.10;0.40;;;22.10;52.50;;;;;;5132908;27;20397;-54
2023/08/28 01:05:51;;;;;;;1.90;0.77;;;22.10;52.60;;;;;;5132701;28;20520;-53
2023/08/28 01:08:23;;;;;;;1.10;0.50;;;22.10;52.60;;;;;;5133065;27;20612;-53
2023/08/28 01:10:54;;;;;;;1.10;0.57;;;22.10;52.70;;;;;;5132797;28;20400;-52
2023/08/28 01:13:36;;;;;;;1.10;0.50;;;22.10;52.60;;;;;;5132874;27;20388;-57
2023/08/28 01:16:02;;;;;;;1.33;0.60;;;22.10;52.70;;;;;;5132549;27;20924;-53
2023/08/28 01:18:28;;;;;;;1.50;0.73;;;22.00;52.70;;;;;;5132706;27;20444;-52
2023/08/28 01:20:54;;;;;;;1.40;0.67;;;22.00;52.60;;;;;;5133061;28;20400;-56
2023/08/28 01:23:43;;;;;;;1.80;1.00;;;22.00;52.60;;;;;;5133153;28;20897;-52
2023/08/28 01:26:09;;;;;;;1.40;0.60;;;22.00;52.70;;;;;;5132728;28;20809;-56
2023/08/28 01:28:35;;;;;;;1.00;0.50;;;22.00;52.70;;;;;;5132813;27;20411;-55
2023/08/28 01:31:04;;;;;;;1.20;0.63;;;22.00;52.50;;;;;;5132640;28;20747;-52
2023/08/28 01:33:31;;;;;;;1.00;0.40;;;22.00;52.30;;;;;;5132943;27;20486;-52
2023/08/28 01:36:21;;;;;;;1.30;0.90;;;22.00;52.30;;;;;;5134579;27;20442;-56
2023/08/28 01:38:56;;;;;;;1.10;0.53;;;21.90;52.40;;;;;;5136674;27;20867;-54
2023/08/28 01:41:24;;;;;;;1.10;0.53;;;21.90;52.40;;;;;;5136631;27;20424;-56
2023/08/28 01:43:56;;;;;;;1.10;0.90;;;21.90;52.40;;;;;;5136796;27;20400;-53
2023/08/28 01:46:22;;;;;;;2.50;1.07;;;21.90;52.50;;;;;;5136198;27;20444;-52
2023/08/28 01:48:53;;;;;;;1.10;0.53;;;21.90;52.30;;;;;;5136686;27;20408;-55
2023/08/28 01:51:20;;;;;;;1.20;0.60;;;21.90;52.20;;;;;;5136537;27;20410;-54
2023/08/28 01:53:47;;;;;;;1.20;0.50;;;21.80;52.10;;;;;;5136299;27;20400;-53
2023/08/28 01:56:18;;;;;;;1.73;0.80;;;21.80;52.10;;;;;;5136091;27;20427;-53
2023/08/28 01:58:47;;;;;;;1.20;0.70;;;21.80;52.00;;;;;;5136034;27;20447;-55
2023/08/28 02:01:12;;;;;;;1.10;0.53;;;21.70;52.00;;;;;;5136310;27;20404;-52
2023/08/28 02:03:39;;;;;;;1.10;0.50;;;21.70;52.00;;;;;;5136504;27;21033;-52
2023/08/28 02:06:08;;;;;;;1.10;0.43;;;21.70;52.00;;;;;;5135797;27;20270;-56
2023/08/28 02:08:35;;;;;;;1.00;0.33;;;21.60;51.90;;;;;;5136106;27;20418;-53
2023/08/28 02:11:00;;;;;;;1.10;0.43;;;21.60;51.90;;;;;;5135912;27;20917;-53
2023/08/28 02:13:26;;;;;;;1.37;1.13;;;21.60;51.90;;;;;;5136201;27;20453;-54
2023/08/28 02:15:53;;;;;;;1.20;0.60;;;21.60;51.90;;;;;;5135741;27;20170;-51
2023/08/28 02:18:19;;;;;;;1.13;0.57;;;21.60;51.90;;;;;;5135961;27;20443;-53
2023/08/28 02:20:45;;;;;;;1.10;0.60;;;21.60;51.70;;;;;;5135907;27;20906;-54
2023/08/28 02:23:11;;;;;;;1.53;0.80;;;21.60;51.70;;;;;;5135871;27;20400;-55
2023/08/28 02:25:47;;;;;;;1.00;0.40;;;21.60;51.50;;;;;;5135666;27;20408;-52
2023/08/28 02:28:13;;;;;;;1.30;0.63;;;21.50;51.30;;;;;;5135909;27;20411;-57
2023/08/28 02:30:39;;;;;;;1.33;0.80;;;21.50;51.40;;;;;;5134350;27;20420;-53
2023/08/28 02:33:05;;;;;;;1.57;0.80;;;21.40;51.60;;;;;;5135664;27;20408;-52
2023/08/28 02:35:31;;;;;;;1.33;0.90;;;21.40;51.70;;;;;;5135337;27;20446;-55
2023/08/28 02:37:57;;;;;;;1.40;0.63;;;21.40;51.70;;;;;;5135578;27;20462;-54
2023/08/28 02:40:24;;;;;;;1.13;0.53;;;21.40;51.80;;;;;;5135291;27;20401;-52
2023/08/28 02:42:50;;;;;;;2.20;0.83;;;21.40;51.70;;;;;;5135349;27;20902;-53
2023/08/28 02:45:16;;;;;;;1.27;0.70;;;21.50;51.70;;;;;;5135388;27;20824;-54
2023/08/28 02:47:41;;;;;;;1.10;0.57;;;21.50;51.70;;;;;;5134369;27;20511;-54
2023/08/28 02:50:07;;;;;;;1.20;0.70;;;21.40;51.50;;;;;;5135361;27;20644;-55
2023/08/28 02:52:33;;;;;;;1.40;0.80;;;21.40;51.30;;;;;;5135343;27;20580;-52
2023/08/28 02:54:59;;;;;;;1.17;0.53;;;21.40;51.50;;;;;;5134814;27;20444;-53
2023/08/28 02:57:25;;;;;;;1.20;0.60;;;21.40;51.60;;;;;;5135207;27;20481;-55
2023/08/28 02:59:50;;;;;;;1.13;0.53;;;21.30;51.60;;;;;;5135235;27;20532;-53
2023/08/28 03:02:16;;;;;;;1.10;0.60;;;21.30;51.50;;;;;;5135332;27;20528;-55
2023/08/28 03:04:42;;;;;;;1.20;0.67;;;21.30;51.50;;;;;;5134852;27;20242;-55
2023/08/28 03:07:08;;;;;;;1.10;0.50;;;21.30;51.50;;;;;;5135115;27;20274;-52
2023/08/28 03:09:34;;;;;;;1.00;0.50;;;21.20;51.40;;;;;;5134794;27;20847;-56
2023/08/28 03:12:00;;;;;;;1.80;0.57;;;21.20;51.50;;;;;;5135093;27;20404;-52
2023/08/28 03:14:26;;;;;;;1.20;0.50;;;21.20;51.50;;;;;;5134601;27;20217;-51
2023/08/28 03:16:52;;;;;;;1.70;0.73;;;21.20;51.70;;;;;;5134823;27;20447;-57
2023/08/28 03:19:18;;;;;;;1.10;0.50;;;21.20;51.70;;;;;;5134592;27;20444;-55
2023/08/28 03:21:43;;;;;;;1.00;0.40;;;21.10;51.70;;;;;;5134899;27;20167;-52
2023/08/28 03:24:09;;;;;;;1.10;0.53;;;21.10;51.80;;;;;;5134297;27;20835;-56
2023/08/28 03:26:35;;;;;;;1.20;0.60;;;21.10;51.80;;;;;;5134424;27;20197;-51
2023/08/28 03:29:01;;;;;;;1.00;0.40;;;21.10;51.90;;;;;;5134400;27;20171;-52
2023/08/28 03:31:29;;;;;;;1.50;0.77;;;21.10;51.80;;;;;;5134565;27;20209;-54
2023/08/28 03:33:54;;;;;;;1.13;0.50;;;21.20;51.90;;;;;;5134349;27;20400;-53
2023/08/28 03:36:20;;;;;;;1.10;0.60;;;21.20;51.80;;;;;;5133938;27;20810;-55
2023/08/28 03:38:46;;;;;;;1.10;0.50;;;21.20;51.90;;;;;;5134084;27;20198;-52
2023/08/28 03:41:11;;;;;;;1.00;0.50;;;21.20;51.80;;;;;;5134228;27;20656;-51
2023/08/28 03:43:37;;;;;;;1.00;0.40;;;21.10;51.70;;;;;;5134097;27;20174;-55
2023/08/28 03:46:03;;;;;;;1.23;0.70;;;21.10;51.70;;;;;;5134012;27;20196;-56
2023/08/28 03:48:29;;;;;;;1.13;0.60;;;21.10;51.70;;;;;;5134186;27;20227;-52
2023/08/28 03:50:55;;;;;;;1.17;0.50;;;21.10;51.90;;;;;;5133990;27;20513;-52
2023/08/28 03:53:20;;;;;;;1.77;0.53;;;21.10;51.80;;;;;;5134151;27;20464;-53
2023/08/28 03:55:46;;;;;;;1.10;0.63;;;21.10;51.90;;;;;;5133870;27;20174;-53
2023/08/28 03:58:12;;;;;;;1.30;0.57;;;21.10;51.90;;;;;;5133824;27;20237;-53
2023/08/28 04:00:39;;;;;;;1.20;0.60;;;21.10;51.70;;;;;;5133865;27;20568;-53
2023/08/28 04:03:05;;;;;;;1.23;0.60;;;21.00;51.50;;;;;;5133736;27;20181;-52
2023/08/28 04:05:35;;;;;;;1.57;0.40;;;21.00;51.80;;;;;;5133614;27;20418;-57
2023/08/28 04:08:01;;;;;;;1.20;0.50;;;21.00;52.70;;;;;;5133897;27;20461;-56
2023/08/28 04:10:27;;;;;;;1.10;0.63;;;20.90;51.90;;;;;;5132386;27;20820;-52
2023/08/28 04:12:53;;;;;;;2.30;0.73;;;20.90;52.20;;;;;;5133736;27;20166;-53
2023/08/28 04:15:19;;;;;;;1.07;0.50;;;20.90;52.10;;;;;;5133412;27;20158;-55
2023/08/28 04:17:45;;;;;;;1.33;0.70;;;21.00;52.10;;;;;;5133535;27;20297;-52
2023/08/28 04:20:14;;;;;;;1.30;0.77;;;21.00;52.20;;;;;;5133765;27;20487;-57
2023/08/28 04:22:43;;;;;;;1.20;0.83;;;21.00;52.10;;;;;;5133800;27;20404;-52
2023/08/28 04:25:13;;;;;;;1.37;0.70;;;21.00;52.00;;;;;;5133152;27;20759;-52
2023/08/28 04:27:40;;;;;;;1.40;0.60;;;21.00;51.90;;;;;;5133498;27;20457;-56
2023/08/28 04:30:07;;;;;;;1.30;0.77;;;21.00;51.90;;;;;;5133304;27;20412;-53
2023/08/28 04:32:33;;;;;;;1.83;0.90;;;21.00;51.90;;;;;;5133270;27;20898;-51
2023/08/28 04:35:00;;;;;;;1.20;0.70;;;21.00;51.80;;;;;;5132952;27;20424;-54
2023/08/28 04:37:26;;;;;;;1.00;0.50;;;21.00;51.70;;;;;;5133231;27;20432;-58
2023/08/28 04:39:53;;;;;;;1.40;0.70;;;21.00;51.90;;;;;;5133169;27;20910;-52
2023/08/28 04:42:19;;;;;;;1.20;0.50;;;21.00;51.70;;;;;;5133254;27;20423;-53
2023/08/28 04:44:45;;;;;;;1.00;0.40;;;21.10;51.90;;;;;;5132874;27;20409;-52
2023/08/28 04:47:12;;;;;;;1.30;0.63;;;21.00;51.80;;;;;;5133063;27;20420;-55
2023/08/28 04:49:38;;;;;;;1.30;0.60;;;21.10;51.90;;;;;;5133231;27;20507;-53
2023/08/28 04:52:04;;;;;;;1.30;0.50;;;21.00;51.90;;;;;;5133064;27;20488;-57
2023/08/28 04:54:30;;;;;;;1.10;0.60;;;21.00;51.90;;;;;;5133081;27;20655;-53
2023/08/28 04:56:59;;;;;;;1.10;0.50;;;21.00;51.90;;;;;;5133006;27;20442;-52
2023/08/28 04:59:25;;;;;;;1.43;0.80;;;21.00;52.00;;;;;;5133134;27;20280;-57
2023/08/28 05:01:51;;;;;;;1.10;0.50;;;21.00;52.00;;;;;;5132998;27;20404;-53
2023/08/28 05:04:16;;;;;;;1.40;0.73;;;21.00;52.10;;;;;;5131323;28;20508;-53
2023/08/28 05:06:42;;;;;;;1.07;0.50;;;21.00;52.20;;;;;;5133040;27;20202;-57
2023/08/28 05:09:08;;;;;;;1.30;0.60;;;21.00;52.20;;;;;;5132837;27;20577;-53
2023/08/28 05:11:34;;;;;;;1.10;0.50;;;21.10;52.50;;;;;;5136753;27;20174;-51
2023/08/28 05:13:59;;;;;;;1.10;0.50;;;21.10;52.40;;;;;;5137081;27;20563;-53
2023/08/28 05:16:25;;;;;;;1.20;0.50;;;21.10;52.50;;;;;;5136856;27;20189;-57
2023/08/28 05:18:51;;;;;;;1.10;0.43;;;21.10;52.50;;;;;;5136880;27;20193;-52
2023/08/28 05:21:16;;;;;;;1.07;0.50;;;21.10;52.50;;;;;;5136948;27;20654;-54
2023/08/28 05:23:42;;;;;;;1.47;0.60;;;21.10;53.10;;;;;;5136983;27;20162;-53
2023/08/28 05:26:08;;;;;;;1.10;0.50;;;21.10;52.50;;;;;;5136549;27;20197;-54
2023/08/28 05:28:38;;;;;;;1.00;0.40;;;21.20;52.50;;;;;;5136916;27;20193;-57
2023/08/28 05:31:04;;;;;;;1.00;0.50;;;21.20;52.40;;;;;;5135647;27;20182;-57
2023/08/28 05:33:31;;;;;;;1.00;0.30;;;21.20;52.40;;;;;;5136731;27;20984;-52
2023/08/28 05:35:57;;;;;;;1.10;0.60;;;21.20;52.40;;;;;;5136398;27;20545;-52
2023/08/28 05:38:23;;;;;;;1.70;0.60;;;21.20;52.40;;;;;;5136542;27;20539;-57
2023/08/28 05:40:49;;;;;;;1.33;0.80;;;21.20;52.50;;;;;;5136488;27;20416;-53
2023/08/28 05:43:15;;;;;;;1.10;0.57;;;21.20;52.60;;;;;;5136608;27;20175;-50
2023/08/28 05:45:40;;;;;;;1.20;0.60;;;21.30;52.70;;;;;;5136185;27;20205;-57
2023/08/28 05:48:07;;;;;;;1.00;0.50;;;21.30;52.60;;;;;;5136483;27;20502;-50
2023/08/28 05:50:32;;;;;;;1.40;0.50;;;21.30;52.60;;;;;;5136629;27;20170;-51
2023/08/28 05:52:58;;;;;;;1.00;0.50;;;21.30;52.60;;;;;;5136674;27;20580;-57
2023/08/28 05:55:24;;;;;;;1.10;0.40;;;21.30;52.60;;;;;;5136109;27;20162;-52
2023/08/28 05:57:50;;;;;;;1.20;0.60;;;21.30;52.40;;;;;;5136172;27;20206;-59
2023/08/28 06:00:16;;;;;;;1.10;0.40;;;21.30;52.40;;;;;;5136691;27;20659;-55
2023/08/28 06:02:42;;;;;;;1.03;0.50;;;21.30;52.60;;;;;;5136442;27;20178;-51
2023/08/28 06:05:08;;;;;;;1.00;0.40;;;21.40;52.70;;;;;;5136006;27;20409;-52
2023/08/28 06:07:35;;;;;;;1.10;0.60;;;21.40;52.50;;;;;;5136176;27;20430;-56
2023/08/28 06:10:01;;;;;;;1.00;0.50;;;21.40;52.30;;;;;;5136242;27;20432;-52
2023/08/28 06:12:26;;;;;;;1.00;0.47;;;21.40;52.20;;;;;;5136241;27;20940;-55
2023/08/28 06:14:52;;;;;;;1.30;0.63;;;21.40;52.10;;;;;;5135829;27;20562;-52
2023/08/28 06:17:18;;;;;;;1.20;0.60;;;21.40;52.80;;;;;;5136065;27;20278;-52
2023/08/28 06:19:44;;;;;;;1.00;0.40;;;21.40;52.20;;;;;;5135863;27;20679;-55
2023/08/28 06:22:10;;;;;;;1.00;0.43;;;21.40;52.30;;;;;;5135694;27;20171;-52
2023/08/28 06:24:35;;;;;;;1.00;0.33;;;21.40;52.40;;;;;;5135498;27;20173;-51
2023/08/28 06:27:02;;;;;;;1.20;0.67;;;21.40;52.40;;;;;;5135712;27;20225;-57
2023/08/28 06:29:28;;;;;;;1.10;0.50;;;21.40;52.40;;;;;;5135526;27;20633;-52
2023/08/28 06:31:53;;;;;;;1.20;0.53;;;21.40;52.40;;;;;;5135657;27;20464;-53
2023/08/28 06:34:19;;;;;;;1.20;0.60;;;21.50;52.20;;;;;;5135487;27;20175;-56
2023/08/28 06:36:45;;;;;;;1.00;0.30;;;21.40;52.10;;;;;;5135558;27;20564;-50
2023/08/28 06:39:12;;;;;;;1.00;0.40;;;21.50;52.20;;;;;;5135479;27;20206;-52
2023/08/28 06:41:39;;;;;;;1.00;0.50;;;21.50;52.10;;;;;;5135772;27;20432;-52
2023/08/28 06:44:05;;;;;;;0.97;0.37;;;21.50;52.00;;;;;;5135204;27;20428;-55
2023/08/28 06:46:31;;;;;;;1.27;0.80;;;21.50;51.70;;;;;;5135235;27;20265;-53
2023/08/28 06:48:57;;;;;;;1.20;0.60;;;21.50;51.80;;;;;;5135284;27;20412;-55
2023/08/28 06:51:23;;;;;;;1.10;0.50;;;21.50;51.80;;;;;;5135643;27;20404;-52
2023/08/28 06:53:49;;;;;;;1.67;0.70;;;21.50;51.40;;;;;;5135164;27;20919;-51
2023/08/28 06:56:15;;;;;;;2.27;0.53;;;21.50;51.30;;;;;;5134834;27;20201;-54
2023/08/28 06:58:41;;;;;;;1.00;0.40;;;21.50;51.60;;;;;;5134972;27;20459;-51
2023/08/28 07:01:07;;;;;;;1.00;0.60;;;21.50;51.70;;;;;;5135251;27;20416;-51
2023/08/28 07:03:33;;;;;;;1.00;0.40;;;21.50;51.80;;;;;;5135031;27;20400;-56
2023/08/28 07:05:59;;;;;;;1.00;0.43;;;21.50;52.00;;;;;;5134743;27;20306;-56
2023/08/28 07:08:25;;;;;;;1.10;0.50;;;21.60;52.10;;;;;;5134955;27;20418;-52
2023/08/28 07:10:50;;;;;;;1.00;0.37;;;21.60;52.20;;;;;;5134964;27;20185;-54
2023/08/28 07:13:17;;;;;;;1.53;0.50;;;21.60;52.20;;;;;;5134709;27;20990;-53
2023/08/28 07:15:42;;;;;;;1.00;0.40;;;21.60;51.90;;;;;;5134837;27;20536;-51
2023/08/28 07:18:08;;;;;;;1.30;0.60;;;21.60;51.90;;;;;;5134668;27;20452;-55
2023/08/28 07:20:34;;;;;;;1.10;0.50;;;21.60;52.10;;;;;;5134654;27;20200;-51
2023/08/28 07:23:00;;;;;;;1.00;0.40;;;21.70;51.90;;;;;;5134823;27;20170;-52
2023/08/28 07:25:27;;;;;;;1.30;0.57;;;21.60;51.70;;;;;;5134367;27;20166;-57
2023/08/28 07:27:54;;;;;;;1.00;0.40;;;21.60;51.60;;;;;;5134330;27;20524;-50
2023/08/28 07:30:20;;;;;;;1.40;1.13;;;21.60;51.50;;;;;;5134729;27;20411;-54
2023/08/28 07:32:46;;;;;;;1.00;0.40;;;21.60;52.20;;;;;;5133894;27;20400;-56
2023/08/28 07:35:12;;;;;;;1.00;0.30;;;21.60;51.70;;;;;;5134156;27;20424;-52
2023/08/28 07:37:38;;;;;;;0.93;0.37;;;21.70;52.00;;;;;;5134216;27;20921;-51
2023/08/28 07:40:05;;;;;;;1.03;0.43;;;21.70;52.00;;;;;;5134488;27;20431;-55
2023/08/28 07:42:35;;;;;;;1.10;0.50;;;21.70;51.90;;;;;;5134118;27;20548;-51
2023/08/28 07:45:01;;;;;;;1.40;0.60;;;21.70;51.60;;;;;;5134196;27;20752;-53
2023/08/28 07:47:27;;;;;;;1.10;0.50;;;21.70;51.60;;;;;;5134359;27;20946;-54
2023/08/28 07:49:53;;;;;;;1.00;0.50;;;21.70;51.70;;;;;;5134090;27;20412;-51
2023/08/28 07:52:19;;;;;;;2.90;1.03;;;21.70;51.80;;;;;;5134356;27;20480;-50
2023/08/28 07:54:45;;;;;;;1.07;0.43;;;21.70;52.00;;;;;;5133840;27;20913;-53
2023/08/28 07:57:11;;;;;;;1.10;0.60;;;21.80;51.90;;;;;;5134004;27;20431;-54
2023/08/28 07:59:37;;;;;;;1.10;0.50;;;21.80;51.70;;;;;;5133940;27;20459;-52
2023/08/28 08:02:07;;;;;;;1.30;0.43;;;21.80;51.70;;;;;;5134120;27;20536;-56
2023/08/28 08:04:33;;;;;;;1.10;0.50;;;21.80;51.80;;;;;;5134010;27;20158;-56
2023/08/28 08:07:00;;;;;;;1.17;0.57;;;21.80;51.50;;;;;;5133638;27;20420;-51
2023/08/28 08:09:26;;;;;;;1.20;0.60;;;21.80;51.60;;;;;;5133938;27;20406;-51
2023/08/28 08:11:52;;;;;;;1.03;0.47;;;21.80;51.30;;;;;;5133900;27;20430;-56
2023/08/28 08:14:17;;;;;;;1.00;0.50;;;21.90;51.60;;;;;;5133406;27;20173;-56
2023/08/28 08:16:43;;;;;;;1.10;0.43;;;21.90;51.40;;;;;;5133672;27;20202;-52
2023/08/28 08:19:09;;;;;;;1.00;0.50;;;21.90;51.50;;;;;;5133735;27;20496;-51
2023/08/28 08:21:36;;;;;;;1.83;0.67;;;21.90;51.00;;;;;;5133744;27;20781;-55
2023/08/28 08:24:02;;;;;;;1.00;0.40;;;21.90;51.40;;;;;;5133264;27;20758;-53
2023/08/28 08:26:28;;;;;;;1.40;0.93;;;21.90;51.40;;;;;;5133190;27;20455;-51
2023/08/28 08:28:54;;;;;;;1.00;0.40;;;21.90;51.30;;;;;;5133390;27;20404;-57
2023/08/28 08:31:20;;;;;;;1.00;0.30;;;21.90;51.20;;;;;;5133531;27;20846;-52
2023/08/28 08:33:46;;;;;;;1.30;0.70;;;22.00;51.10;;;;;;5133341;27;20923;-55
2023/08/28 08:36:14;;;;;;;1.93;0.90;;;22.00;51.30;;;;;;5132835;27;20262;-56
2023/08/28 08:38:40;;;;;;;1.40;0.87;;;22.00;51.00;;;;;;5133043;27;20754;-52
2023/08/28 08:41:08;;;;;;;1.00;0.30;;;22.00;50.50;;;;;;5133453;27;20444;-57
2023/08/28 08:43:34;;;;;;;1.50;0.60;;;22.10;50.80;;;;;;5133264;27;20407;-57
2023/08/28 08:46:09;;;;;;;1.40;0.40;;;22.10;50.70;;;;;;5132006;27;20416;-51
2023/08/28 08:48:36;;;;;;;1.03;0.50;;;22.10;50.50;;;;;;5133262;27;20404;-56
2023/08/28 08:51:04;;;;;;;1.10;0.60;;;22.20;50.60;;;;;;5133022;27;20407;-52
2023/08/28 08:53:47;;;;;;;1.00;0.50;;;22.10;50.40;;;;;;5133323;27;20426;-52
2023/08/28 08:56:19;;;;;;;1.43;0.77;;;22.20;50.40;;;;;;5132926;27;20507;-50
2023/08/28 08:58:47;;;;;;;1.40;0.50;;;22.20;50.10;;;;;;5133020;27;20538;-54
2023/08/28 09:01:13;;;;;;;1.13;0.57;;;22.20;50.50;;;;;;5132953;27;20408;-56
2023/08/28 09:03:39;;;;;;;1.00;0.47;;;22.20;50.20;;;;;;5132950;27;20408;-51
2023/08/28 09:06:06;;;;;;;1.60;0.80;;;22.30;50.30;;;;;;5132623;27;20459;-57
2023/08/28 09:08:37;;;;;;;1.10;0.60;;;22.30;50.20;;;;;;5133038;27;20408;-51
2023/08/28 09:11:04;;;;;;;1.10;0.40;;;22.20;50.20;;;;;;5133024;27;20427;-53
2023/08/28 09:13:31;;;;;;;1.03;0.47;;;22.20;50.30;;;;;;5133121;27;20412;-56
2023/08/28 09:15:57;;;;;;;1.30;0.57;;;22.20;50.20;;;;;;5132529;27;20477;-52
2023/08/28 09:18:25;;;;;;;1.10;0.53;;;22.20;49.80;;;;;;5132678;27;20463;-52
2023/08/28 09:21:11;;;;;;;1.70;0.80;;;22.20;50.10;;;;;;5133008;27;20404;-56
2023/08/28 09:23:48;;;;;;;1.07;0.50;;;22.30;50.20;;;;;;5133167;27;20786;-55
2023/08/28 09:26:17;;;;;;;1.20;0.50;;;22.30;50.20;;;;;;5132507;28;20416;-54
2023/08/28 09:29:00;;;;;;;1.00;0.40;;;22.30;49.90;;;;;;5132899;27;20812;-55
2023/08/28 09:31:35;;;;;;;1.73;0.70;;;22.30;50.20;;;;;;5132660;27;20432;-52
2023/08/28 09:34:02;;;;;;;2.80;0.97;;;22.20;49.80;;;;;;5132608;27;20399;-54
2023/08/28 09:36:28;;;;;;;1.70;0.83;;;22.20;49.70;;;;;;5132267;27;20446;-56
2023/08/28 09:39:00;;;;;;;1.20;0.70;;;22.30;49.70;;;;;;5131257;28;20451;-52
2023/08/28 09:41:38;;;;;;;1.20;0.40;;;22.30;50.00;;;;;;5132671;27;20830;-52
2023/08/28 09:44:04;;;;;;;1.30;1.03;;;22.20;49.70;;;;;;5132582;27;20400;-55
2023/08/28 09:46:30;;;;;;;1.23;0.70;;;22.20;49.50;;;;;;5132473;27;20428;-51
2023/08/28 09:48:56;;;;;;;1.00;0.40;;;22.20;49.80;;;;;;5132664;27;20413;-57
2023/08/28 09:51:36;;;;;;;0.93;0.30;;;22.20;49.40;;;;;;5132408;27;20423;-57
2023/08/28 09:54:04;;;;;;;1.20;0.77;;;22.20;49.50;;;;;;5132718;27;20404;-51
2023/08/28 09:56:31;;;;;;;1.60;0.73;;;22.30;49.80;;;;;;5133983;27;20450;-56
2023/08/28 09:59:03;;;;;;;1.20;0.80;;;22.30;49.80;;;;;;5136147;27;20466;-57
2023/08/28 10:01:35;;;;;;;1.17;0.70;;;22.30;50.00;;;;;;5136544;27;20404;-50
2023/08/28 10:04:11;;;;;;;1.10;0.60;;;22.30;50.00;;;;;;5136341;27;20404;-56
2023/08/28 10:06:45;;;;;;;2.07;0.73;;;22.30;49.80;;;;;;5136417;27;20481;-54
2023/08/28 10:09:18;;;;;;;1.27;0.97;;;22.30;49.90;;;;;;5136273;27;20916;-54
2023/08/28 10:11:45;;;;;;;1.20;0.70;;;22.30;49.70;;;;;;5136420;27;20387;-55
2023/08/28 10:14:12;;;;;;;1.07;0.50;;;22.30;50.10;;;;;;5135847;27;20412;-51
2023/08/28 10:16:49;;;;;;;1.10;0.60;;;22.20;49.80;;;;;;5135820;27;20450;-50
2023/08/28 10:19:33;;;;;;;1.00;0.33;;;22.20;49.70;;;;;;5135773;27;20964;-53
2023/08/28 10:22:01;;;;;;;1.33;0.67;;;22.20;49.90;;;;;;5135832;27;20416;-58
2023/08/28 10:24:30;;;;;;;1.10;0.60;;;22.20;49.50;;;;;;5135773;27;20415;-57
2023/08/28 10:26:57;;;;;;;1.50;1.00;;;22.20;49.60;;;;;;5135596;27;20929;-52
2023/08/28 10:29:26;;;;;;;1.20;0.70;;;22.10;49.90;;;;;;5135971;27;20467;-52
2023/08/28 10:31:54;;;;;;;1.10;0.50;;;22.10;50.20;;;;;;5135587;27;20408;-57
2023/08/28 10:34:20;;;;;;;1.30;0.70;;;22.10;50.50;;;;;;5135524;27;20405;-58
2023/08/28 10:36:47;;;;;;;1.20;0.40;;;22.10;50.50;;;;;;5135538;27;20508;-52
2023/08/28 10:39:13;;;;;;;1.20;0.67;;;22.10;50.50;;;;;;5135517;27;20549;-55
2023/08/28 10:41:40;;;;;;;1.50;0.80;;;22.10;50.60;;;;;;5135329;27;20860;-53
2023/08/28 10:44:07;;;;;;;1.97;0.70;;;22.10;50.60;;;;;;5135404;27;20167;-55
2023/08/28 10:46:33;;;;;;;1.00;0.40;;;22.10;50.80;;;;;;5135367;27;20444;-52
2023/08/28 10:49:03;;;;;;;1.10;0.60;;;22.00;51.00;;;;;;5135282;27;20481;-52
2023/08/28 10:51:31;;;;;;;1.10;0.60;;;22.00;50.80;;;;;;5135297;27;20400;-55
2023/08/28 10:54:03;;;;;;;1.00;0.40;;;22.00;51.00;;;;;;5135424;27;20424;-52
2023/08/28 10:56:36;;;;;;;1.20;0.60;;;22.00;51.20;;;;;;5134960;27;20432;-52
2023/08/28 10:59:22;;;;;;;1.10;0.50;;;22.00;51.20;;;;;;5135089;27;20468;-51
2023/08/28 11:01:58;;;;;;;1.20;0.60;;;22.00;51.30;;;;;;5135144;27;20412;-52
2023/08/28 11:04:31;;;;;;;1.37;0.60;;;21.90;51.50;;;;;;5135073;27;20395;-52
2023/08/28 11:06:57;;;;;;;1.10;0.50;;;21.90;51.50;;;;;;5134693;27;20424;-56
2023/08/28 11:09:29;;;;;;;1.20;0.80;;;21.90;51.60;;;;;;5134173;27;20412;-57
2023/08/28 11:11:57;;;;;;;1.10;0.53;;;21.90;51.60;;;;;;5134800;27;20648;-52
2023/08/28 11:14:32;;;;;;;1.50;0.53;;;21.90;51.60;;;;;;5134645;27;20473;-54
2023/08/28 11:17:18;;;;;;;2.33;0.53;;;21.80;51.30;;;;;;5134757;27;20451;-52
2023/08/28 11:19:53;;;;;;;1.00;0.40;;;21.70;51.30;;;;;;5134897;27;20444;-52
2023/08/28 11:22:35;;;;;;;1.10;0.60;;;21.70;51.50;;;;;;5134707;27;20391;-56
2023/08/28 11:25:04;;;;;;;1.10;0.50;;;21.70;51.40;;;;;;5134506;27;20444;-52
2023/08/28 11:27:53;;;;;;;1.53;0.70;;;21.60;51.40;;;;;;5134378;27;20557;-57
2023/08/28 11:30:21;;;;;;;1.20;0.60;;;21.60;51.30;;;;;;5134489;27;20442;-53
2023/08/28 11:32:51;;;;;;;1.10;0.50;;;21.50;51.30;;;;;;5134445;27;20400;-53
2023/08/28 11:35:17;;;;;;;1.10;0.60;;;21.50;51.60;;;;;;5134111;27;20424;-51
2023/08/28 11:37:50;;;;;;;1.10;0.50;;;21.40;51.50;;;;;;5134242;27;20451;-54
2023/08/28 11:40:21;;;;;;;1.10;0.57;;;21.40;51.80;;;;;;5134626;27;20743;-51
2023/08/28 11:42:48;;;;;;;1.43;0.67;;;21.30;52.00;;;;;;5134452;27;20484;-55
2023/08/28 11:45:24;;;;;;;1.10;0.70;;;21.40;52.30;;;;;;5133908;27;20407;-51
2023/08/28 11:47:50;;;;;;;2.53;1.60;;;21.40;52.20;;;;;;5134032;27;20424;-53
2023/08/28 11:50:18;;;;;;;1.00;0.43;;;21.30;52.40;;;;;;5134013;27;20407;-50
2023/08/28 11:52:48;;;;;;;1.10;0.60;;;21.30;52.40;;;;;;5134045;27;20218;-52
2023/08/28 11:55:14;;;;;;;1.20;0.70;;;21.40;52.50;;;;;;5134158;27;20456;-54
2023/08/28 11:57:42;;;;;;;1.47;0.93;;;21.40;52.70;;;;;;5132436;27;20428;-53
2023/08/28 12:00:14;;;;;;;1.20;0.50;;;21.40;52.70;;;;;;5133883;27;20403;-51
2023/08/28 12:02:43;;;;;;;1.73;1.17;;;21.40;52.60;;;;;;5133931;27;20401;-53
2023/08/28 12:05:09;;;;;;;1.73;0.80;;;21.40;52.60;;;;;;5133525;27;20824;-55
2023/08/28 12:07:35;;;;;;;1.53;0.87;;;21.40;52.80;;;;;;5133658;27;20516;-52
2023/08/28 12:10:01;;;;;;;2.43;1.80;;;21.40;52.80;;;;;;5133690;27;20404;-53
2023/08/28 12:12:27;;;;;;;1.70;1.50;;;21.50;52.90;;;;;;5133810;27;20177;-56
2023/08/28 12:14:53;;;;;;;2.33;1.50;;;21.50;52.60;;;;;;5133724;27;20543;-50
2023/08/28 12:17:23;;;;;;;1.30;0.67;;;21.50;52.90;;;;;;5133503;27;20933;-57
2023/08/28 12:19:50;;;;;;;1.10;0.60;;;21.50;53.00;;;;;;5133238;27;21021;-56
2023/08/28 12:22:16;;;;;;;1.13;0.73;;;21.50;52.90;;;;;;5133574;27;20905;-51
2023/08/28 12:24:44;;;;;;;1.57;0.80;;;21.50;52.90;;;;;;5133518;27;20408;-52
2023/08/28 12:27:11;;;;;;;1.90;1.43;;;21.60;52.90;;;;;;5133432;27;20510;-53
2023/08/28 12:29:37;;;;;;;1.30;0.80;;;21.50;52.80;;;;;;5132241;27;20438;-52
2023/08/28 12:32:07;;;;;;;2.03;1.23;;;21.60;52.90;;;;;;5133240;27;20400;-53
2023/08/28 12:34:34;;;;;;;1.17;0.73;;;21.60;53.00;;;;;;5133078;27;20419;-56
2023/08/28 12:37:05;;;;;;;1.20;0.80;;;21.60;52.90;;;;;;5133161;27;20929;-55
2023/08/28 12:39:30;;;;;;;1.10;0.50;;;21.60;52.70;;;;;;5133314;27;20463;-52
2023/08/28 12:41:56;;;;;;;1.00;0.50;;;21.60;52.80;;;;;;5133451;27;20396;-54
2023/08/28 12:44:23;;;;;;;1.10;0.60;;;21.60;53.00;;;;;;5133055;27;20174;-56
2023/08/28 12:46:49;;;;;;;1.63;1.07;;;21.60;53.00;;;;;;5133027;27;20181;-52
2023/08/28 12:49:19;;;;;;;1.60;1.30;;;21.70;53.00;;;;;;5133453;27;20411;-52
2023/08/28 12:51:46;;;;;;;1.20;0.30;;;21.70;53.10;;;;;;5133158;27;20439;-55